Time;durP1;ratioP1;P1;durP2;ratioP2;P2;SDS_P1;SDS_P2;PMS_P1;PMS_P2;Temp;Humidity;BMP_temperature;BMP_pressure;BME280_temperature;BME280_humidity;BME280_pressure;Samples;Min_cycle;Max_cycle;Signal;HPM_P1;HPM_P2
2023/08/19 00:00:52;;;;;;;24.08;21.83;;;;;;;;;;5065673;28;20045;-83
2023/08/19 00:03:18;;;;;;;23.50;21.15;;;;;;;;;;5066299;28;20051;-82
2023/08/19 00:05:45;;;;;;;22.27;20.38;;;;;;;;;;5065515;28;20081;-83
2023/08/19 00:08:11;;;;;;;24.65;22.35;;;;;;;;;;5064619;28;20127;-84
2023/08/19 00:10:40;;;;;;;24.20;21.98;;;;;;;;;;5066313;28;20048;-84
2023/08/19 00:13:06;;;;;;;25.15;22.65;;;;;;;;;;5057433;28;20044;-83
2023/08/19 00:15:32;;;;;;;22.77;20.70;;;;;;;;;;5040440;28;20041;-84
2023/08/19 00:18:02;;;;;;;23.60;21.23;;;;;;;;;;5066174;28;20069;-83
2023/08/19 00:20:29;;;;;;;23.45;21.35;;;;;;;;;;5066256;28;20060;-82
2023/08/19 00:22:58;;;;;;;23.80;21.60;;;;;;;;;;5066312;28;20503;-83
2023/08/19 00:25:25;;;;;;;24.60;22.30;;;;;;;;;;5037866;28;20069;-83
2023/08/19 00:27:51;;;;;;;24.05;21.85;;;;;;;;;;5061088;28;20068;-83
2023/08/19 00:30:17;;;;;;;23.65;21.58;;;;;;;;;;5070917;28;20067;-83
2023/08/19 00:32:44;;;;;;;23.90;21.77;;;;;;;;;;5072804;28;20096;-83
2023/08/19 00:35:10;;;;;;;25.42;21.27;;;;;;;;;;5076746;28;20029;-84
2023/08/19 00:37:37;;;;;;;23.20;21.00;;;;;;;;;;5076275;28;20098;-84
2023/08/19 00:40:06;;;;;;;24.23;21.90;;;;;;;;;;5059330;28;20029;-83
2023/08/19 00:42:33;;;;;;;24.63;22.20;;;;;;;;;;5060674;28;20132;-83
2023/08/19 00:45:02;;;;;;;24.77;22.38;;;;;;;;;;5042454;28;20088;-83
2023/08/19 00:47:28;;;;;;;24.45;22.15;;;;;;;;;;5056049;28;20026;-84
2023/08/19 00:49:55;;;;;;;25.05;22.75;;;;;;;;;;5059487;28;20069;-84
2023/08/19 00:52:21;;;;;;;26.02;23.27;;;;;;;;;;5075885;28;20037;-83
2023/08/19 00:54:47;;;;;;;25.38;23.17;;;;;;;;;;5051645;28;20040;-84
2023/08/19 00:57:13;;;;;;;26.23;23.73;;;;;;;;;;5077231;28;20041;-84
2023/08/19 00:59:40;;;;;;;24.80;22.52;;;;;;;;;;5063049;28;20021;-84
2023/08/19 01:02:06;;;;;;;25.63;23.13;;;;;;;;;;5045520;28;20055;-83
2023/08/19 01:04:32;;;;;;;25.50;23.08;;;;;;;;;;5094909;28;20039;-83
2023/08/19 01:07:34;;;;;;;25.33;22.73;;;;;;;;;;5078651;28;20128;-84
2023/08/19 01:10:00;;;;;;;23.77;21.55;;;;;;;;;;4991213;28;20138;-83
2023/08/19 01:12:35;;;;;;;25.92;23.40;;;;;;;;;;4980042;28;20086;-83
2023/08/19 01:15:11;;;;;;;26.10;23.52;;;;;;;;;;4991115;28;20043;-82
2023/08/19 01:17:38;;;;;;;23.90;21.52;;;;;;;;;;4989179;28;20050;-83
2023/08/19 01:20:05;;;;;;;24.10;21.73;;;;;;;;;;4994579;28;20039;-83
2023/08/19 01:22:39;;;;;;;24.60;22.30;;;;;;;;;;4975059;28;20046;-82
2023/08/19 01:25:06;;;;;;;24.80;22.40;;;;;;;;;;4990835;28;20058;-83
2023/08/19 01:27:32;;;;;;;25.27;22.73;;;;;;;;;;4989391;28;20115;-83
2023/08/19 01:29:58;;;;;;;25.02;22.73;;;;;;;;;;4974431;28;20074;-83
2023/08/19 01:32:24;;;;;;;24.90;22.48;;;;;;;;;;4973752;28;20046;-83
2023/08/19 01:34:51;;;;;;;24.52;22.40;;;;;;;;;;4989743;28;20046;-83
2023/08/19 01:37:22;;;;;;;24.52;22.25;;;;;;;;;;4973227;28;20070;-83
2023/08/19 01:39:49;;;;;;;24.65;22.25;;;;;;;;;;4988078;28;20123;-84
2023/08/19 01:42:17;;;;;;;25.63;23.23;;;;;;;;;;4974768;28;20091;-83
2023/08/19 01:44:47;;;;;;;26.05;23.25;;;;;;;;;;5054926;28;20045;-83
2023/08/19 01:47:13;;;;;;;26.33;23.90;;;;;;;;;;5050942;28;20123;-83
2023/08/19 01:49:39;;;;;;;26.80;24.08;;;;;;;;;;5052135;28;20048;-82
2023/08/19 01:52:06;;;;;;;26.17;23.60;;;;;;;;;;5051294;28;20066;-83
2023/08/19 01:54:32;;;;;;;27.23;24.63;;;;;;;;;;5051972;28;20045;-82
2023/08/19 01:57:01;;;;;;;26.83;23.98;;;;;;;;;;5052269;28;20051;-83
2023/08/19 01:59:27;;;;;;;26.48;23.88;;;;;;;;;;5064509;28;20068;-83
2023/08/19 02:01:53;;;;;;;25.67;23.08;;;;;;;;;;5042346;28;20045;-83
2023/08/19 02:04:19;;;;;;;26.63;23.95;;;;;;;;;;5069791;28;20045;-83
2023/08/19 02:06:45;;;;;;;26.77;24.15;;;;;;;;;;5033650;28;20080;-84
2023/08/19 02:09:11;;;;;;;26.88;24.25;;;;;;;;;;5067320;28;20059;-84
2023/08/19 02:11:37;;;;;;;26.17;23.88;;;;;;;;;;5051588;28;20100;-82
2023/08/19 02:14:04;;;;;;;27.55;24.75;;;;;;;;;;5034253;28;20041;-83
2023/08/19 02:16:30;;;;;;;26.55;23.73;;;;;;;;;;5033809;28;20052;-84
2023/08/19 02:18:59;;;;;;;26.65;24.08;;;;;;;;;;5064901;28;20090;-83
2023/08/19 02:21:25;;;;;;;27.08;24.45;;;;;;;;;;5067290;28;20060;-84
2023/08/19 02:23:52;;;;;;;26.55;23.80;;;;;;;;;;5050809;28;20403;-83
2023/08/19 02:26:18;;;;;;;26.40;23.85;;;;;;;;;;5050622;28;20049;-84
2023/08/19 02:28:44;;;;;;;27.50;24.63;;;;;;;;;;5050215;28;20060;-84
2023/08/19 02:31:10;;;;;;;26.05;23.63;;;;;;;;;;5049693;28;20055;-84
2023/08/19 02:33:38;;;;;;;25.95;23.50;;;;;;;;;;5068471;28;20041;-83
2023/08/19 02:36:07;;;;;;;26.35;23.85;;;;;;;;;;5067171;28;20048;-84
2023/08/19 02:38:34;;;;;;;27.70;25.17;;;;;;;;;;5068593;28;20049;-83
2023/08/19 02:41:00;;;;;;;25.55;23.15;;;;;;;;;;5051597;28;20067;-83
2023/08/19 02:43:26;;;;;;;26.80;24.38;;;;;;;;;;5067401;28;20037;-84
2023/08/19 02:45:53;;;;;;;26.55;23.92;;;;;;;;;;5048925;28;20073;-83
2023/08/19 02:48:19;;;;;;;27.05;24.20;;;;;;;;;;5049137;28;20045;-84
2023/08/19 02:50:45;;;;;;;26.88;24.30;;;;;;;;;;5049175;28;20052;-84
2023/08/19 02:53:11;;;;;;;26.38;23.75;;;;;;;;;;5066757;28;20051;-84
2023/08/19 02:55:41;;;;;;;25.92;23.50;;;;;;;;;;5050520;28;20040;-82
2023/08/19 02:58:07;;;;;;;25.75;23.05;;;;;;;;;;5049755;28;20045;-83
2023/08/19 03:00:37;;;;;;;26.50;23.88;;;;;;;;;;5048020;28;20053;-83
2023/08/19 03:03:05;;;;;;;25.98;23.58;;;;;;;;;;5048657;28;20102;-82
2023/08/19 03:05:31;;;;;;;24.83;22.40;;;;;;;;;;5066100;28;20057;-83
2023/08/19 03:07:59;;;;;;;26.08;23.48;;;;;;;;;;5049064;28;20412;-83
2023/08/19 03:10:25;;;;;;;25.80;23.15;;;;;;;;;;5049988;28;20128;-83
2023/08/19 03:12:53;;;;;;;24.95;22.35;;;;;;;;;;5065208;28;20093;-84
2023/08/19 03:15:19;;;;;;;24.67;22.08;;;;;;;;;;5046594;28;20060;-83
2023/08/19 03:17:46;;;;;;;25.75;23.35;;;;;;;;;;5056415;28;20090;-84
2023/08/19 03:20:12;;;;;;;24.65;22.40;;;;;;;;;;5047605;28;20045;-84
2023/08/19 03:22:38;;;;;;;23.77;21.55;;;;;;;;;;5047621;28;20095;-84
2023/08/19 03:25:04;;;;;;;22.50;20.20;;;;;;;;;;5066268;28;20056;-83
2023/08/19 03:27:30;;;;;;;23.15;20.77;;;;;;;;;;5062121;28;20041;-84
2023/08/19 03:29:56;;;;;;;23.80;21.30;;;;;;;;;;5056237;28;20533;-82
2023/08/19 03:32:23;;;;;;;25.25;22.50;;;;;;;;;;5071927;28;20041;-83
2023/08/19 03:34:49;;;;;;;23.85;21.55;;;;;;;;;;5069568;28;20076;-84
2023/08/19 03:37:15;;;;;;;24.35;21.95;;;;;;;;;;5050456;28;20087;-83
2023/08/19 03:39:41;;;;;;;25.83;23.08;;;;;;;;;;5048986;28;20056;-84
2023/08/19 03:42:07;;;;;;;24.83;22.48;;;;;;;;;;5049752;28;20072;-83
2023/08/19 03:44:33;;;;;;;24.42;22.17;;;;;;;;;;5065867;28;20049;-83
2023/08/19 03:46:59;;;;;;;23.42;21.23;;;;;;;;;;5036836;28;20047;-83
2023/08/19 03:49:25;;;;;;;23.70;20.95;;;;;;;;;;5067225;28;20037;-82
2023/08/19 03:51:51;;;;;;;24.50;21.95;;;;;;;;;;5048483;28;20047;-82
2023/08/19 03:54:17;;;;;;;24.35;21.92;;;;;;;;;;5064492;28;20049;-83
2023/08/19 03:56:43;;;;;;;23.48;21.25;;;;;;;;;;5052309;28;20120;-83
2023/08/19 03:59:09;;;;;;;23.45;21.08;;;;;;;;;;5045869;28;20041;-84
2023/08/19 04:01:36;;;;;;;23.50;21.23;;;;;;;;;;5058032;28;20045;-83
2023/08/19 04:04:02;;;;;;;23.95;21.30;;;;;;;;;;5043731;28;20555;-84
2023/08/19 04:06:28;;;;;;;24.38;21.85;;;;;;;;;;5047671;28;20053;-83
2023/08/19 04:08:54;;;;;;;23.15;20.75;;;;;;;;;;5062921;28;20056;-84
2023/08/19 04:11:20;;;;;;;23.75;21.25;;;;;;;;;;5065340;28;20044;-84
2023/08/19 04:13:46;;;;;;;24.55;22.23;;;;;;;;;;5054600;28;20075;-84
2023/08/19 04:16:12;;;;;;;23.92;21.63;;;;;;;;;;5045807;28;20041;-83
2023/08/19 04:18:41;;;;;;;23.95;21.55;;;;;;;;;;5058726;28;20072;-84
2023/08/19 04:21:09;;;;;;;23.02;20.73;;;;;;;;;;5044447;28;20060;-83
2023/08/19 04:23:35;;;;;;;22.80;20.38;;;;;;;;;;5051440;28;20141;-83
2023/08/19 04:26:02;;;;;;;23.10;20.83;;;;;;;;;;5041962;28;20087;-83
2023/08/19 04:28:28;;;;;;;24.30;20.85;;;;;;;;;;5045434;28;20049;-83
2023/08/19 04:31:01;;;;;;;22.73;20.45;;;;;;;;;;5030435;28;20142;-84
2023/08/19 04:33:27;;;;;;;22.27;19.92;;;;;;;;;;5064967;28;20053;-83
2023/08/19 04:35:53;;;;;;;21.42;19.23;;;;;;;;;;5067171;28;20119;-84
2023/08/19 04:38:19;;;;;;;22.48;20.30;;;;;;;;;;5066175;28;20044;-84
2023/08/19 04:40:46;;;;;;;22.75;20.35;;;;;;;;;;5062693;28;20451;-84
2023/08/19 04:43:12;;;;;;;22.35;19.75;;;;;;;;;;5066904;28;20044;-84
2023/08/19 04:45:38;;;;;;;21.35;19.05;;;;;;;;;;5072409;28;20071;-83
2023/08/19 04:48:05;;;;;;;20.75;18.75;;;;;;;;;;5041449;28;20059;-83
2023/08/19 04:50:31;;;;;;;21.70;19.25;;;;;;;;;;5068418;28;20037;-83
2023/08/19 04:52:57;;;;;;;20.67;18.48;;;;;;;;;;5066426;28;20045;-83
2023/08/19 04:55:23;;;;;;;19.00;17.17;;;;;;;;;;5069396;28;20037;-84
2023/08/19 04:57:49;;;;;;;20.08;18.08;;;;;;;;;;5067665;28;20037;-84
2023/08/19 05:00:16;;;;;;;20.10;18.10;;;;;;;;;;5050466;28;20080;-83
2023/08/19 05:02:42;;;;;;;19.80;17.73;;;;;;;;;;5048278;28;20073;-83
2023/08/19 05:05:08;;;;;;;20.75;18.75;;;;;;;;;;5060269;28;20096;-83
2023/08/19 05:07:34;;;;;;;19.52;17.58;;;;;;;;;;5065075;28;20047;-83
2023/08/19 05:10:00;;;;;;;19.45;17.55;;;;;;;;;;5067213;28;20041;-83
2023/08/19 05:12:26;;;;;;;19.58;17.60;;;;;;;;;;5067860;28;20041;-84
2023/08/19 05:14:53;;;;;;;19.55;17.60;;;;;;;;;;5066906;28;20052;-82
2023/08/19 05:17:19;;;;;;;19.05;17.05;;;;;;;;;;5048077;28;20144;-83
2023/08/19 05:19:46;;;;;;;18.13;16.42;;;;;;;;;;5066305;28;20048;-83
2023/08/19 05:22:12;;;;;;;19.80;15.93;;;;;;;;;;5067003;28;20049;-84
2023/08/19 05:24:41;;;;;;;19.60;16.63;;;;;;;;;;5050097;28;20041;-84
2023/08/19 05:27:07;;;;;;;17.65;15.88;;;;;;;;;;5050014;28;20063;-84
2023/08/19 05:29:33;;;;;;;18.17;15.50;;;;;;;;;;5056685;28;20116;-83
2023/08/19 05:32:04;;;;;;;17.38;15.57;;;;;;;;;;5044318;28;20184;-83
2023/08/19 05:34:30;;;;;;;19.75;15.10;;;;;;;;;;5065168;28;20044;-84
2023/08/19 05:36:56;;;;;;;17.92;14.40;;;;;;;;;;5065806;28;20116;-84
2023/08/19 05:39:22;;;;;;;17.27;14.60;;;;;;;;;;5057480;28;20084;-82
2023/08/19 05:41:48;;;;;;;15.85;13.77;;;;;;;;;;5065266;28;20041;-83
2023/08/19 05:44:14;;;;;;;15.68;14.07;;;;;;;;;;5065187;28;20040;-83
2023/08/19 05:46:41;;;;;;;18.92;14.38;;;;;;;;;;5045779;28;20727;-83
2023/08/19 05:49:07;;;;;;;16.48;13.75;;;;;;;;;;5048932;28;20178;-83
2023/08/19 05:51:33;;;;;;;16.75;13.23;;;;;;;;;;5065447;28;20087;-83
2023/08/19 05:54:00;;;;;;;15.30;13.85;;;;;;;;;;5067768;28;20037;-83
2023/08/19 05:56:26;;;;;;;14.93;13.43;;;;;;;;;;5046378;28;20045;-85
2023/08/19 05:58:52;;;;;;;17.48;14.10;;;;;;;;;;5031412;28;20102;-84
2023/08/19 06:01:18;;;;;;;16.10;13.00;;;;;;;;;;5031614;28;20075;-84
2023/08/19 06:03:44;;;;;;;17.70;13.52;;;;;;;;;;5065107;28;20387;-83
2023/08/19 06:06:10;;;;;;;17.83;13.90;;;;;;;;;;5029065;28;20408;-82
2023/08/19 06:08:36;;;;;;;21.10;14.25;;;;;;;;;;5027825;28;20046;-85
2023/08/19 06:11:07;;;;;;;15.38;13.77;;;;;;;;;;5022121;28;20050;-83
2023/08/19 06:13:36;;;;;;;15.70;14.02;;;;;;;;;;5009231;28;20037;-83
2023/08/19 06:16:03;;;;;;;15.30;13.70;;;;;;;;;;4994877;28;20523;-84
2023/08/19 06:18:29;;;;;;;14.75;12.93;;;;;;;;;;5011412;28;20038;-84
2023/08/19 06:20:56;;;;;;;14.63;13.13;;;;;;;;;;4995856;28;20046;-84
2023/08/19 06:23:22;;;;;;;16.70;13.77;;;;;;;;;;5004516;28;20046;-83
2023/08/19 06:25:49;;;;;;;15.25;11.85;;;;;;;;;;5010853;28;20037;-82
2023/08/19 06:28:16;;;;;;;14.20;12.35;;;;;;;;;;5023359;28;20104;-84
2023/08/19 06:30:42;;;;;;;14.35;12.25;;;;;;;;;;5022059;28;20038;-85
2023/08/19 06:33:09;;;;;;;14.52;12.25;;;;;;;;;;5019665;28;20042;-86
2023/08/19 06:35:35;;;;;;;13.52;12.00;;;;;;;;;;5014250;28;20408;-84
2023/08/19 06:38:04;;;;;;;16.38;12.35;;;;;;;;;;5023785;28;20046;-83
2023/08/19 06:40:33;;;;;;;15.10;12.98;;;;;;;;;;5025850;28;20534;-84
2023/08/19 06:43:00;;;;;;;14.02;11.52;;;;;;;;;;5003705;28;20050;-84
2023/08/19 06:45:26;;;;;;;14.98;11.98;;;;;;;;;;4998716;28;20046;-84
2023/08/19 06:47:53;;;;;;;13.35;11.95;;;;;;;;;;5027147;28;20121;-84
2023/08/19 06:50:19;;;;;;;13.73;12.05;;;;;;;;;;5010727;28;20046;-85
2023/08/19 06:52:46;;;;;;;14.88;12.75;;;;;;;;;;5026494;28;20091;-83
2023/08/19 06:55:12;;;;;;;13.98;12.48;;;;;;;;;;5028679;28;20046;-83
2023/08/19 06:57:47;;;;;;;16.10;12.30;;;;;;;;;;5024507;28;20042;-84
2023/08/19 07:00:14;;;;;;;14.57;12.82;;;;;;;;;;5024829;28;20038;-83
2023/08/19 07:02:41;;;;;;;14.65;11.88;;;;;;;;;;5024182;28;20026;-87
2023/08/19 07:05:14;;;;;;;13.25;11.85;;;;;;;;;;5035650;28;20045;-86
2023/08/19 07:07:49;;;;;;;14.82;12.52;;;;;;;;;;5033847;28;20057;-85
2023/08/19 07:10:19;;;;;;;13.40;12.02;;;;;;;;;;5043532;28;20111;-86
2023/08/19 07:12:45;;;;;;;14.30;11.85;;;;;;;;;;5046221;28;20045;-87
2023/08/19 07:15:12;;;;;;;13.80;12.30;;;;;;;;;;5041875;28;20033;-85
2023/08/19 07:17:48;;;;;;;16.48;11.88;;;;;;;;;;5048051;28;20109;-85
2023/08/19 07:20:18;;;;;;;14.05;11.32;;;;;;;;;;5033460;28;20041;-84
2023/08/19 07:22:45;;;;;;;13.23;10.55;;;;;;;;;;5032781;28;20041;-84
2023/08/19 07:25:11;;;;;;;12.23;10.43;;;;;;;;;;5049264;28;20065;-85
2023/08/19 07:27:38;;;;;;;14.88;10.57;;;;;;;;;;5017303;28;20053;-85
2023/08/19 07:30:04;;;;;;;13.15;10.40;;;;;;;;;;5046901;28;20056;-87
2023/08/19 07:32:31;;;;;;;14.18;10.93;;;;;;;;;;5044086;28;20043;-83
2023/08/19 07:34:58;;;;;;;14.18;10.82;;;;;;;;;;5046572;28;21109;-84
2023/08/19 07:37:24;;;;;;;13.20;10.10;;;;;;;;;;5042847;28;20065;-83
2023/08/19 07:39:53;;;;;;;14.02;10.85;;;;;;;;;;5063669;28;20411;-85
2023/08/19 07:42:19;;;;;;;13.85;10.55;;;;;;;;;;5059693;28;20095;-84
2023/08/19 07:44:45;;;;;;;13.30;10.60;;;;;;;;;;5047500;28;20069;-84
2023/08/19 07:47:11;;;;;;;11.00;9.63;;;;;;;;;;5039259;28;20109;-84
2023/08/19 07:49:38;;;;;;;11.05;9.93;;;;;;;;;;5027355;28;20048;-85
2023/08/19 07:52:05;;;;;;;12.73;10.10;;;;;;;;;;5029539;28;20042;-84
2023/08/19 07:54:31;;;;;;;17.70;9.55;;;;;;;;;;5023126;28;20075;-84
2023/08/19 07:57:01;;;;;;;17.23;9.85;;;;;;;;;;5040182;28;20389;-84
2023/08/19 07:59:27;;;;;;;11.05;9.32;;;;;;;;;;5019836;28;20056;-86
2023/08/19 08:01:54;;;;;;;11.77;8.85;;;;;;;;;;5024621;28;20037;-85
2023/08/19 08:04:21;;;;;;;11.95;9.23;;;;;;;;;;5030129;28;20045;-84
2023/08/19 08:06:51;;;;;;;12.88;9.45;;;;;;;;;;5047705;28;20041;-83
2023/08/19 08:09:19;;;;;;;11.65;8.68;;;;;;;;;;5065288;28;20041;-85
2023/08/19 08:11:48;;;;;;;10.88;8.10;;;;;;;;;;5019788;28;20033;-84
2023/08/19 08:14:16;;;;;;;11.20;8.15;;;;;;;;;;5052505;28;20037;-83
2023/08/19 08:16:42;;;;;;;10.68;8.63;;;;;;;;;;5052307;28;20064;-83
2023/08/19 08:19:08;;;;;;;9.48;8.45;;;;;;;;;;5050649;28;20036;-83
2023/08/19 08:21:34;;;;;;;12.68;7.75;;;;;;;;;;5065364;28;20045;-83
2023/08/19 08:24:00;;;;;;;10.52;7.78;;;;;;;;;;5042366;28;20044;-85
2023/08/19 08:26:26;;;;;;;13.27;8.10;;;;;;;;;;5032605;28;20135;-83
2023/08/19 08:28:52;;;;;;;10.88;7.95;;;;;;;;;;5030806;28;20086;-82
2023/08/19 08:31:19;;;;;;;12.48;7.80;;;;;;;;;;5039698;28;20045;-83
2023/08/19 08:33:46;;;;;;;11.30;7.32;;;;;;;;;;5022767;28;20143;-83
2023/08/19 08:36:12;;;;;;;11.02;7.40;;;;;;;;;;5025929;28;20037;-84
2023/08/19 08:38:38;;;;;;;10.27;6.80;;;;;;;;;;5030772;28;20105;-84
2023/08/19 08:41:07;;;;;;;10.23;7.10;;;;;;;;;;5064267;28;20071;-84
2023/08/19 08:43:34;;;;;;;9.80;6.93;;;;;;;;;;5043343;28;20041;-85
2023/08/19 08:46:00;;;;;;;10.38;7.03;;;;;;;;;;5026657;28;20475;-82
2023/08/19 08:48:29;;;;;;;10.50;7.35;;;;;;;;;;5041306;28;20146;-83
2023/08/19 08:50:56;;;;;;;10.02;7.65;;;;;;;;;;5037860;28;20025;-84
2023/08/19 08:53:22;;;;;;;11.25;7.63;;;;;;;;;;5060423;28;20041;-83
2023/08/19 08:55:49;;;;;;;10.02;7.43;;;;;;;;;;5063927;28;20052;-84
2023/08/19 08:58:15;;;;;;;9.43;6.93;;;;;;;;;;5030456;28;20131;-84
2023/08/19 09:00:41;;;;;;;9.15;7.15;;;;;;;;;;5045632;28;20049;-84
2023/08/19 09:03:08;;;;;;;13.27;6.75;;;;;;;;;;5064732;28;20049;-83
2023/08/19 09:05:36;;;;;;;10.05;6.15;;;;;;;;;;5040217;28;20062;-84
2023/08/19 09:08:04;;;;;;;10.68;6.32;;;;;;;;;;5060685;28;20049;-84
2023/08/19 09:10:31;;;;;;;13.10;6.78;;;;;;;;;;5063852;28;20041;-84
2023/08/19 09:13:01;;;;;;;9.52;6.35;;;;;;;;;;5048465;28;20049;-83
2023/08/19 09:15:30;;;;;;;12.10;5.85;;;;;;;;;;5060280;28;20063;-84
2023/08/19 09:17:57;;;;;;;10.32;6.43;;;;;;;;;;5064880;28;20457;-84
2023/08/19 09:20:25;;;;;;;9.00;6.10;;;;;;;;;;5053704;28;20049;-84
2023/08/19 09:22:51;;;;;;;10.07;6.00;;;;;;;;;;5069634;28;20547;-82
2023/08/19 09:25:17;;;;;;;9.02;5.38;;;;;;;;;;5055037;28;20112;-83
2023/08/19 09:27:46;;;;;;;10.23;5.55;;;;;;;;;;5073553;28;20101;-82
2023/08/19 09:30:18;;;;;;;10.00;5.40;;;;;;;;;;5070437;28;20041;-83
2023/08/19 09:32:45;;;;;;;11.82;5.47;;;;;;;;;;5067157;28;20048;-83
2023/08/19 09:35:12;;;;;;;8.18;5.65;;;;;;;;;;5065138;28;20053;-83
2023/08/19 09:37:38;;;;;;;11.30;5.30;;;;;;;;;;5073927;28;20049;-83
2023/08/19 09:40:10;;;;;;;7.32;5.97;;;;;;;;;;5054440;28;20087;-83
2023/08/19 09:42:40;;;;;;;8.63;5.70;;;;;;;;;;5071643;28;20121;-83
2023/08/19 09:45:06;;;;;;;10.73;6.22;;;;;;;;;;5055168;28;20056;-83
2023/08/19 09:47:44;;;;;;;8.23;5.97;;;;;;;;;;5022526;28;20059;-83
2023/08/19 09:50:11;;;;;;;9.25;6.05;;;;;;;;;;5073468;28;20064;-82
2023/08/19 09:52:40;;;;;;;9.18;5.72;;;;;;;;;;5056599;28;20057;-83
2023/08/19 09:55:06;;;;;;;9.38;5.55;;;;;;;;;;5051864;28;20121;-85
2023/08/19 09:57:33;;;;;;;7.63;5.28;;;;;;;;;;5073400;28;20055;-83
2023/08/19 10:00:00;;;;;;;12.48;5.75;;;;;;;;;;5056112;28;20088;-83
2023/08/19 10:02:27;;;;;;;7.00;5.10;;;;;;;;;;5076175;28;20052;-83
2023/08/19 10:04:53;;;;;;;7.93;4.90;;;;;;;;;;5073321;28;20128;-83
2023/08/19 10:07:22;;;;;;;7.47;4.82;;;;;;;;;;5056185;28;20068;-83
2023/08/19 10:09:49;;;;;;;11.32;5.10;;;;;;;;;;5056636;28;20053;-84
2023/08/19 10:12:16;;;;;;;10.77;4.90;;;;;;;;;;5033068;28;20050;-83
2023/08/19 10:14:43;;;;;;;9.30;4.50;;;;;;;;;;5036969;28;20041;-83
2023/08/19 10:17:10;;;;;;;11.43;4.90;;;;;;;;;;5021766;28;20041;-84
2023/08/19 10:19:44;;;;;;;7.95;4.50;;;;;;;;;;5058438;28;20064;-83
2023/08/19 10:22:11;;;;;;;8.30;4.80;;;;;;;;;;5067409;28;20052;-83
2023/08/19 10:24:38;;;;;;;7.35;4.60;;;;;;;;;;5051960;28;20094;-83
2023/08/19 10:27:04;;;;;;;8.70;4.65;;;;;;;;;;5025796;28;20044;-83
2023/08/19 10:29:30;;;;;;;6.72;4.70;;;;;;;;;;5055818;28;20558;-83
2023/08/19 10:31:56;;;;;;;8.27;4.70;;;;;;;;;;5035608;28;20045;-83
2023/08/19 10:34:26;;;;;;;10.80;4.10;;;;;;;;;;5052508;28;20129;-82
2023/08/19 10:37:08;;;;;;;8.98;4.70;;;;;;;;;;5053663;28;20049;-82
2023/08/19 10:39:35;;;;;;;9.43;4.50;;;;;;;;;;5054583;28;20041;-82
2023/08/19 10:42:02;;;;;;;8.73;4.95;;;;;;;;;;5034316;28;20049;-82
2023/08/19 10:44:33;;;;;;;12.75;4.70;;;;;;;;;;5068580;28;20093;-82
2023/08/19 10:46:59;;;;;;;;;;;;;;;;;;5070344;28;20499;-82
2023/08/19 10:49:33;;;;;;;9.63;4.80;;;;;;;;;;5071224;28;20012;-82
2023/08/19 10:52:01;;;;;;;10.82;4.82;;;;;;;;;;5071183;28;20080;-83
2023/08/19 10:54:48;;;;;;;7.95;4.70;;;;;;;;;;5069405;28;20356;-82
2023/08/19 10:57:15;;;;;;;14.70;4.88;;;;;;;;;;5067429;28;20076;-84
2023/08/19 10:59:48;;;;;;;7.82;4.95;;;;;;;;;;5053911;28;20044;-83
2023/08/19 11:02:14;;;;;;;9.77;4.72;;;;;;;;;;5061190;28;20045;-83
2023/08/19 11:04:42;;;;;;;10.35;5.07;;;;;;;;;;5070819;28;20063;-81
2023/08/19 11:07:09;;;;;;;13.65;5.40;;;;;;;;;;5068367;28;20041;-82
2023/08/19 11:09:35;;;;;;;14.32;6.80;;;;;;;;;;5068721;28;20119;-84
2023/08/19 11:12:02;;;;;;;13.80;6.80;;;;;;;;;;5069980;28;20041;-85
2023/08/19 11:14:28;;;;;;;11.00;6.32;;;;;;;;;;5068999;28;20051;-85
2023/08/19 11:16:58;;;;;;;13.90;6.30;;;;;;;;;;5067166;28;20028;-85
2023/08/19 11:19:25;;;;;;;9.30;6.80;;;;;;;;;;5065098;28;20548;-86
2023/08/19 11:21:51;;;;;;;8.98;7.30;;;;;;;;;;5059548;28;20044;-87
2023/08/19 11:24:17;;;;;;;11.32;7.60;;;;;;;;;;5069558;28;20041;-87
2023/08/19 11:26:44;;;;;;;10.00;7.85;;;;;;;;;;5049083;28;20101;-87
2023/08/19 11:29:11;;;;;;;10.90;7.50;;;;;;;;;;5046521;28;20124;-88
2023/08/19 11:31:38;;;;;;;9.82;7.53;;;;;;;;;;5062643;28;20432;-87
2023/08/19 11:34:11;;;;;;;10.95;7.97;;;;;;;;;;5062339;28;20103;-87
2023/08/19 11:36:37;;;;;;;14.05;8.80;;;;;;;;;;5061772;28;20076;-88
2023/08/19 11:39:04;;;;;;;12.13;7.93;;;;;;;;;;5059212;28;20033;-88
2023/08/19 11:41:30;;;;;;;11.85;8.15;;;;;;;;;;5059068;28;20049;-87
2023/08/19 11:43:58;;;;;;;11.55;8.60;;;;;;;;;;5045431;28;20464;-88
2023/08/19 11:46:30;;;;;;;9.85;8.60;;;;;;;;;;5062586;28;20072;-88
2023/08/19 11:48:57;;;;;;;13.48;8.65;;;;;;;;;;5060268;28;20525;-89
2023/08/19 11:51:29;;;;;;;14.20;8.82;;;;;;;;;;5044523;28;20122;-88
2023/08/19 11:54:01;;;;;;;16.05;9.88;;;;;;;;;;5061946;28;20045;-88
2023/08/19 11:56:28;;;;;;;12.98;9.45;;;;;;;;;;5048914;28;20053;-87
2023/08/19 11:58:54;;;;;;;12.65;9.68;;;;;;;;;;5040344;28;20075;-87
2023/08/19 12:01:22;;;;;;;15.75;9.98;;;;;;;;;;5056501;28;20415;-86
2023/08/19 12:03:51;;;;;;;11.90;8.70;;;;;;;;;;5051503;28;20052;-86
2023/08/19 12:06:18;;;;;;;13.70;9.40;;;;;;;;;;5056473;28;20057;-87
2023/08/19 12:08:45;;;;;;;10.45;8.90;;;;;;;;;;5061960;28;20131;-87
2023/08/19 12:11:12;;;;;;;13.48;9.43;;;;;;;;;;5063578;28;20041;-86
2023/08/19 12:13:39;;;;;;;12.52;10.23;;;;;;;;;;5061466;28;20064;-86
2023/08/19 12:16:06;;;;;;;13.77;10.15;;;;;;;;;;5063263;28;20041;-86
2023/08/19 12:18:33;;;;;;;13.50;10.10;;;;;;;;;;5063402;28;20107;-86
2023/08/19 12:21:00;;;;;;;15.32;10.45;;;;;;;;;;5044853;28;20055;-87
2023/08/19 12:23:26;;;;;;;15.18;10.40;;;;;;;;;;5063014;28;20041;-86
2023/08/19 12:25:53;;;;;;;12.80;10.52;;;;;;;;;;5044222;28;20043;-86
2023/08/19 12:28:20;;;;;;;14.50;10.32;;;;;;;;;;5063225;28;20045;-86
2023/08/19 12:30:47;;;;;;;15.70;10.85;;;;;;;;;;5062379;28;20131;-86
2023/08/19 12:33:16;;;;;;;16.30;11.02;;;;;;;;;;5059291;28;20053;-86
2023/08/19 12:35:44;;;;;;;14.90;11.13;;;;;;;;;;5062497;28;20061;-86
2023/08/19 12:38:13;;;;;;;14.20;11.82;;;;;;;;;;5049034;28;20353;-86
2023/08/19 12:40:39;;;;;;;16.08;11.73;;;;;;;;;;5062253;28;20456;-86
2023/08/19 12:43:05;;;;;;;16.13;11.10;;;;;;;;;;5060384;28;20052;-86
2023/08/19 12:45:31;;;;;;;12.77;10.60;;;;;;;;;;5061850;28;20116;-86
2023/08/19 12:47:57;;;;;;;13.07;11.65;;;;;;;;;;5043808;28;20194;-85
2023/08/19 12:50:23;;;;;;;16.48;11.70;;;;;;;;;;5061543;28;20055;-86
2023/08/19 12:52:49;;;;;;;13.27;11.77;;;;;;;;;;5043957;28;20484;-83
2023/08/19 12:55:18;;;;;;;15.82;11.48;;;;;;;;;;5065081;28;20052;-85
2023/08/19 12:57:45;;;;;;;14.88;13.27;;;;;;;;;;5066600;28;20076;-85
2023/08/19 13:00:12;;;;;;;17.23;15.48;;;;;;;;;;5065011;28;20041;-86
2023/08/19 13:02:38;;;;;;;17.42;15.30;;;;;;;;;;5060076;28;20045;-85
2023/08/19 13:05:05;;;;;;;20.35;15.77;;;;;;;;;;5059357;28;20060;-85
2023/08/19 13:07:31;;;;;;;18.95;16.98;;;;;;;;;;5061510;28;20071;-85
2023/08/19 13:10:01;;;;;;;18.40;16.48;;;;;;;;;;5056875;28;20045;-85
2023/08/19 13:12:27;;;;;;;26.50;21.85;;;;;;;;;;5052889;28;20045;-85
2023/08/19 13:14:53;;;;;;;29.20;26.30;;;;;;;;;;5028641;28;20041;-84
2023/08/19 13:17:19;;;;;;;31.20;28.00;;;;;;;;;;5064122;28;20417;-85
2023/08/19 13:19:45;;;;;;;32.88;29.67;;;;;;;;;;5045379;28;20040;-85
2023/08/19 13:22:12;;;;;;;34.33;30.63;;;;;;;;;;5063237;28;20495;-84
2023/08/19 13:24:41;;;;;;;34.70;31.40;;;;;;;;;;5063897;28;20106;-85
2023/08/19 13:27:07;;;;;;;32.53;27.13;;;;;;;;;;5063348;28;20123;-85
2023/08/19 13:29:33;;;;;;;27.13;23.73;;;;;;;;;;5044663;28;20135;-85
2023/08/19 13:31:59;;;;;;;30.05;23.80;;;;;;;;;;5060974;28;20040;-86
2023/08/19 13:34:25;;;;;;;29.77;26.58;;;;;;;;;;5063495;28;20097;-86
2023/08/19 13:36:51;;;;;;;26.52;23.50;;;;;;;;;;5062637;28;20348;-87
2023/08/19 13:39:17;;;;;;;26.30;21.80;;;;;;;;;;5037843;28;20056;-85
2023/08/19 13:41:43;;;;;;;24.10;20.48;;;;;;;;;;5063829;28;20096;-85
2023/08/19 13:44:09;;;;;;;17.80;15.70;;;;;;;;;;5061191;28;20037;-86
2023/08/19 13:46:35;;;;;;;15.50;11.38;;;;;;;;;;5064697;28;20041;-86
2023/08/19 13:49:02;;;;;;;13.20;9.82;;;;;;;;;;5063208;28;20037;-86
2023/08/19 13:51:28;;;;;;;9.82;6.43;;;;;;;;;;5063467;28;20040;-85
2023/08/19 13:53:54;;;;;;;10.15;5.60;;;;;;;;;;5044775;28;20037;-87
2023/08/19 13:56:20;;;;;;;9.00;5.53;;;;;;;;;;5044022;28;20033;-85
2023/08/19 13:58:46;;;;;;;8.75;4.97;;;;;;;;;;5062830;28;20496;-86
2023/08/19 14:01:14;;;;;;;8.38;5.07;;;;;;;;;;5062224;28;20461;-85
2023/08/19 14:03:40;;;;;;;8.65;4.80;;;;;;;;;;5064509;28;20036;-85
2023/08/19 14:06:06;;;;;;;8.13;4.63;;;;;;;;;;5059128;28;20057;-86
2023/08/19 14:08:36;;;;;;;9.60;5.10;;;;;;;;;;5062989;28;20062;-87
2023/08/19 14:11:02;;;;;;;8.45;4.20;;;;;;;;;;5071186;28;20036;-86
2023/08/19 14:13:29;;;;;;;9.15;4.82;;;;;;;;;;5059608;28;20040;-86
2023/08/19 14:15:55;;;;;;;7.88;4.70;;;;;;;;;;5076463;28;20044;-84
2023/08/19 14:18:21;;;;;;;8.35;4.75;;;;;;;;;;5058626;28;20108;-86
2023/08/19 14:20:47;;;;;;;9.80;4.63;;;;;;;;;;5056978;28;20045;-85
2023/08/19 14:23:13;;;;;;;10.70;4.78;;;;;;;;;;5057564;28;20053;-86